Time;durP1;ratioP1;P1;durP2;ratioP2;P2;SDS_P1;SDS_P2;PMS_P1;PMS_P2;Temp;Humidity;BMP_temperature;BMP_pressure;BME280_temperature;BME280_humidity;BME280_pressure;Samples;Min_cycle;Max_cycle;Signal;HPM_P1;HPM_P2
2021/10/03 00:01:32;;;;;;;;;3.00;3.00;;;;;18.37;76.04;98902.91;5053160;28;45921;-87
2021/10/03 00:03:59;;;;;;;;;4.00;4.00;;;;;18.35;75.89;98897.00;5045377;28;45760;-86
2021/10/03 00:06:26;;;;;;;;;4.50;4.00;;;;;18.37;75.66;98879.06;5016959;28;47815;-86
2021/10/03 00:08:52;;;;;;;;;3.00;3.00;;;;;18.41;75.87;98901.47;5051036;28;45829;-85
2021/10/03 00:11:18;;;;;;;;;3.75;3.25;;;;;18.32;76.03;98871.69;5036521;28;46082;-85
2021/10/03 00:13:43;;;;;;;;;3.50;2.50;;;;;18.40;75.82;98887.44;5039130;28;45700;-87
2021/10/03 00:16:09;;;;;;;;;3.00;3.00;;;;;18.43;75.59;98892.31;5047248;28;46450;-87
2021/10/03 00:18:35;;;;;;;;;1.75;1.75;;;;;18.20;75.45;98836.19;5039671;28;46172;-86
2021/10/03 00:21:02;;;;;;;;;3.00;3.00;;;;;18.36;75.45;98857.00;5033820;28;46173;-86
2021/10/03 00:23:29;;;;;;;;;3.00;3.00;;;;;18.36;75.92;98864.16;5047863;28;45672;-87
2021/10/03 00:25:55;;;;;;;;;3.00;3.00;;;;;18.45;75.45;98873.56;5053853;28;46500;-87
2021/10/03 00:28:21;;;;;;;;;4.50;4.00;;;;;18.41;75.63;98859.88;5033904;28;47380;-85
2021/10/03 00:30:46;;;;;;;;;3.00;3.00;;;;;18.47;75.37;98866.22;5054743;28;45726;-84
2021/10/03 00:33:12;;;;;;;;;4.00;4.00;;;;;18.45;75.58;98858.47;5049377;28;46037;-86
2021/10/03 00:35:37;;;;;;;;;5.25;4.25;;;;;18.46;75.35;98865.38;5042597;28;46441;-87
2021/10/03 00:38:04;;;;;;;;;3.75;3.75;;;;;18.46;75.26;98857.44;5048543;28;45981;-86
2021/10/03 00:40:32;;;;;;;;;5.00;3.75;;;;;18.35;75.84;98847.41;5033661;28;46134;-86
2021/10/03 00:43:00;;;;;;;;;3.50;3.00;;;;;18.48;75.89;98851.94;5047408;28;46297;-85
2021/10/03 00:45:26;;;;;;;;;3.50;3.50;;;;;18.42;75.33;98839.47;5015405;28;47642;-85
2021/10/03 00:47:52;;;;;;;;;4.00;4.00;;;;;18.50;75.27;98843.78;5048221;28;46088;-86
2021/10/03 00:50:17;;;;;;;;;3.75;3.75;;;;;18.52;75.67;98841.72;5031625;28;45727;-86
2021/10/03 00:52:44;;;;;;;;;4.75;4.25;;;;;18.34;75.53;98811.34;5044262;28;45942;-86
2021/10/03 00:55:12;;;;;;;;;4.25;3.75;;;;;18.45;75.60;98828.47;5013334;28;47374;-85
2021/10/03 00:57:41;;;;;;;;;3.75;3.50;;;;;18.36;75.64;98819.88;5035435;28;45684;-86
2021/10/03 01:00:08;;;;;;;;;4.50;4.00;;;;;18.36;75.08;98814.59;5038076;28;45813;-85
2021/10/03 01:02:35;;;;;;;;;5.50;5.00;;;;;18.39;75.43;98818.69;5037756;28;45828;-85
2021/10/03 01:05:00;;;;;;;;;5.75;5.00;;;;;18.54;75.04;98843.19;5027184;28;48562;-86
2021/10/03 01:07:26;;;;;;;;;5.00;5.00;;;;;18.31;75.78;98789.69;5036982;28;46305;-84
2021/10/03 01:09:52;;;;;;;;;6.25;5.75;;;;;18.50;75.32;98825.22;5047578;28;45723;-84
2021/10/03 01:12:17;;;;;;;;;6.00;6.00;;;;;18.43;75.13;98804.81;5035364;28;45622;-84
2021/10/03 01:14:43;;;;;;;;;3.50;3.50;;;;;18.47;75.34;98815.81;5033152;28;46807;-84
2021/10/03 01:17:08;;;;;;;;;5.25;5.25;;;;;18.33;75.43;98774.41;5039221;28;46308;-84
2021/10/03 01:19:35;;;;;;;;;5.75;5.00;;;;;18.54;75.15;98811.38;5038535;28;45692;-83
2021/10/03 01:22:01;;;;;;;;;6.00;5.00;;;;;18.37;75.19;98776.44;5035730;28;45650;-83
2021/10/03 01:24:30;;;;;;;;;5.00;5.00;;;;;18.50;75.43;98777.47;5040357;28;45905;-83
2021/10/03 01:26:55;;;;;;;;;5.75;5.25;;;;;18.44;75.60;98789.72;5041699;28;46071;-84
2021/10/03 01:29:21;;;;;;;;;5.50;5.50;;;;;18.37;75.30;98781.75;5024566;28;45797;-83
2021/10/03 01:31:46;;;;;;;;;6.00;6.00;;;;;18.39;75.18;98777.06;5045565;28;45680;-85
2021/10/03 01:34:12;;;;;;;;;5.25;5.25;;;;;18.27;75.35;98751.38;5041554;28;46238;-85
2021/10/03 01:36:37;;;;;;;;;5.00;5.00;;;;;18.34;75.39;98763.63;5049789;28;45750;-85
2021/10/03 01:39:03;;;;;;;;;6.25;5.25;;;;;18.44;75.76;98766.66;5051551;28;45991;-83
2021/10/03 01:41:28;;;;;;;;;7.00;6.75;;;;;18.43;75.42;98764.22;5032694;28;45955;-82
2021/10/03 01:43:54;;;;;;;;;7.50;6.75;;;;;18.24;75.51;98722.63;5046213;28;45586;-85
2021/10/03 01:46:20;;;;;;;;;5.50;5.00;;;;;18.45;75.38;98746.28;5050811;28;46126;-84
2021/10/03 01:48:46;;;;;;;;;8.50;7.00;;;;;18.51;75.41;98763.19;5046059;28;45803;-83
2021/10/03 01:51:12;;;;;;;;;5.75;5.75;;;;;18.48;75.31;98759.09;5051371;28;45724;-85
2021/10/03 01:53:42;;;;;;;;;5.25;5.25;;;;;18.32;75.13;98733.00;5046453;28;47450;-84
2021/10/03 01:56:10;;;;;;;;;7.00;7.00;;;;;18.48;75.81;98761.75;5023459;28;48051;-83
2021/10/03 01:58:42;;;;;;;;;7.00;6.00;;;;;18.44;75.60;98742.81;5044072;28;45884;-84
2021/10/03 02:01:15;;;;;;;;;5.75;5.50;;;;;18.48;75.16;98755.63;5047481;28;45575;-84
2021/10/03 02:03:41;;;;;;;;;7.00;7.00;;;;;18.37;75.30;98734.03;5033360;28;46664;-84
2021/10/03 02:06:07;;;;;;;;;7.25;7.25;;;;;18.31;75.32;98715.47;5052939;28;46159;-86
2021/10/03 02:08:32;;;;;;;;;6.75;6.00;;;;;18.45;75.69;98736.47;5052369;28;45742;-82
2021/10/03 02:10:58;;;;;;;;;6.00;6.00;;;;;18.44;75.57;98729.53;5053967;28;45799;-83
2021/10/03 02:13:23;;;;;;;;;6.25;6.25;;;;;18.45;75.24;98711.78;5021751;28;48750;-84
2021/10/03 02:15:50;;;;;;;;;2.25;1.25;;;;;18.45;75.64;98725.88;5052610;28;45725;-85
2021/10/03 02:18:18;;;;;;;;;6.50;6.50;;;;;18.40;75.42;98698.34;5034160;28;45840;-83
2021/10/03 02:20:45;;;;;;;;;7.75;6.50;;;;;18.21;75.48;98664.69;5048215;28;45825;-84
2021/10/03 02:23:13;;;;;;;;;7.75;7.00;;;;;18.42;75.39;98707.72;5034712;28;47609;-84
2021/10/03 02:25:47;;;;;;;;;7.00;6.75;;;;;18.42;75.14;98690.97;5031324;28;47382;-84
2021/10/03 02:28:16;;;;;;;;;5.75;5.00;;;;;18.37;75.68;98673.03;5049412;28;45930;-83
2021/10/03 02:30:43;;;;;;;;;7.75;7.50;;;;;18.41;75.70;98679.56;5040032;28;45681;-84
2021/10/03 02:33:10;;;;;;;;;9.00;7.00;;;;;18.32;75.50;98672.84;5038954;28;46603;-84
2021/10/03 02:35:38;;;;;;;;;7.50;6.50;;;;;18.39;75.51;98659.59;5025658;28;47693;-85
2021/10/03 02:38:06;;;;;;;;;5.50;5.50;;;;;18.32;75.53;98672.03;5031665;28;45809;-85
2021/10/03 02:40:31;;;;;;;;;7.50;6.25;;;;;18.17;75.34;98651.03;5053254;28;45895;-85
2021/10/03 02:43:00;;;;;;;;;8.00;8.00;;;;;18.38;75.78;98672.03;5023393;28;48494;-83
2021/10/03 02:45:26;;;;;;;;;8.00;6.50;;;;;18.37;75.40;98665.09;5043675;28;46039;-85
2021/10/03 02:47:52;;;;;;;;;7.75;7.00;;;;;18.30;75.42;98655.53;5051180;28;45908;-85
2021/10/03 02:50:18;;;;;;;;;9.00;8.00;;;;;18.33;75.33;98652.44;5046795;28;45721;-86
2021/10/03 02:52:43;;;;;;;;;6.50;5.75;;;;;18.32;75.51;98658.75;5044928;28;45758;-85
2021/10/03 02:55:09;;;;;;;;;7.00;7.00;;;;;18.28;75.34;98637.16;5039110;28;45700;-85
2021/10/03 02:57:34;;;;;;;;;7.00;7.00;;;;;18.34;75.26;98636.34;5046536;28;45809;-83
2021/10/03 03:00:08;;;;;;;;;8.50;7.00;;;;;18.28;75.74;98631.03;5034922;28;45980;-84
2021/10/03 03:02:34;;;;;;;;;5.75;5.00;;;;;18.26;75.92;98625.94;5034014;28;47447;-82
2021/10/03 03:04:59;;;;;;;;;6.00;6.00;;;;;18.33;75.51;98640.00;5045093;28;45899;-84
2021/10/03 03:07:25;;;;;;;;;8.00;6.75;;;;;18.33;75.51;98644.50;5014714;28;45765;-84
2021/10/03 03:09:50;;;;;;;;;6.75;6.75;;;;;18.25;75.73;98623.50;5033988;28;45758;-85
2021/10/03 03:12:15;;;;;;;;;8.00;7.00;;;;;18.32;75.47;98627.78;5015139;28;47385;-84
2021/10/03 03:14:41;;;;;;;;;7.75;7.75;;;;;18.20;75.34;98612.69;5038515;28;46800;-83
2021/10/03 03:17:17;;;;;;;;;8.00;8.00;;;;;18.27;75.73;98616.16;5038944;28;46110;-84
2021/10/03 03:19:43;;;;;;;;;8.50;7.50;;;;;18.28;75.08;98623.91;5037739;28;45939;-82
2021/10/03 03:22:13;;;;;;;;;6.75;5.75;;;;;18.23;75.29;98607.00;5044416;28;46394;-82
2021/10/03 03:24:40;;;;;;;;;6.00;6.00;;;;;18.31;75.75;98618.19;5048402;28;45636;-84
2021/10/03 03:27:06;;;;;;;;;7.75;7.00;;;;;18.21;75.73;98590.47;5029559;28;45860;-83
2021/10/03 03:29:32;;;;;;;;;7.00;7.00;;;;;18.30;75.67;98602.50;5047841;28;46039;-83
2021/10/03 03:32:02;;;;;;;;;9.00;9.00;;;;;18.26;75.21;98601.25;5048291;28;46300;-84
2021/10/03 03:34:27;;;;;;;;;8.50;8.00;;;;;18.22;75.24;98597.41;5040033;28;46730;-81
2021/10/03 03:36:52;;;;;;;;;7.50;7.00;;;;;18.23;75.62;98591.09;5046015;28;45963;-84
2021/10/03 03:39:18;;;;;;;;;8.25;7.00;;;;;18.30;75.59;98598.00;5034366;28;45977;-83
2021/10/03 03:41:43;;;;;;;;;9.00;8.00;;;;;18.16;75.23;98585.78;5034103;28;46504;-82
2021/10/03 03:44:09;;;;;;;;;7.25;7.00;;;;;18.27;75.51;98594.94;5024080;28;47293;-85
2021/10/03 03:46:35;;;;;;;;;9.50;8.25;;;;;18.24;75.14;98604.16;5038703;28;45604;-84
2021/10/03 03:49:00;;;;;;;;;5.75;5.75;;;;;18.22;75.21;98589.47;5036890;28;45626;-84
2021/10/03 03:51:25;;;;;;;;;9.00;8.00;;;;;18.15;75.22;98589.47;5042383;28;46368;-85
2021/10/03 03:53:51;;;;;;;;;9.50;9.00;;;;;18.15;75.06;98586.81;5047347;28;45666;-85
2021/10/03 03:56:16;;;;;;;;;7.75;7.00;;;;;18.05;75.52;98575.81;5047919;28;45594;-85
2021/10/03 03:58:42;;;;;;;;;8.75;7.00;;;;;18.04;75.01;98577.66;5050380;28;45680;-86
2021/10/03 04:01:07;;;;;;;;;5.00;5.00;;;;;18.24;74.97;98603.31;5038315;28;48714;-85
2021/10/03 04:03:33;;;;;;;;;7.00;6.50;;;;;18.24;75.23;98605.97;5049483;28;45911;-84
2021/10/03 04:05:58;;;;;;;;;8.00;7.25;;;;;18.17;75.25;98591.91;5033254;28;45982;-84
2021/10/03 04:08:24;;;;;;;;;7.00;7.00;;;;;18.15;75.01;98581.50;5015278;28;45641;-82
2021/10/03 04:10:50;;;;;;;;;8.25;7.75;;;;;18.19;74.99;98595.97;5032639;28;46424;-85
2021/10/03 04:13:17;;;;;;;;;6.50;6.50;;;;;18.23;75.18;98621.06;5037899;28;46507;-83
2021/10/03 04:15:42;;;;;;;;;6.50;6.50;;;;;18.13;75.35;98590.72;5035137;28;45875;-85
2021/10/03 04:18:08;;;;;;;;;8.00;7.00;;;;;18.02;75.04;98579.72;5042111;28;45705;-84
2021/10/03 04:20:33;;;;;;;;;7.00;7.00;;;;;18.11;75.17;98587.44;5015635;28;48669;-84
2021/10/03 04:22:59;;;;;;;;;6.75;6.75;;;;;18.22;74.88;98622.09;5040444;28;45724;-82
2021/10/03 04:25:24;;;;;;;;;8.00;7.00;;;;;18.21;75.48;98607.19;5019767;28;45863;-82
2021/10/03 04:27:49;;;;;;;;;7.25;7.00;;;;;18.20;75.01;98607.41;5046842;28;45693;-87
2021/10/03 04:30:15;;;;;;;;;8.50;7.75;;;;;18.13;75.06;98611.91;5018554;28;47358;-84
2021/10/03 04:32:41;;;;;;;;;9.00;8.00;;;;;17.96;74.88;98585.03;5036971;28;46271;-82
2021/10/03 04:35:07;;;;;;;;;8.75;8.25;;;;;18.08;75.07;98607.22;5032657;28;45779;-86
2021/10/03 04:37:33;;;;;;;;;8.50;7.00;;;;;18.13;75.36;98615.38;5032154;28;46070;-85
2021/10/03 04:39:58;;;;;;;;;8.25;7.75;;;;;18.11;75.37;98608.63;5040284;28;46979;-86
2021/10/03 04:42:23;;;;;;;;;8.25;7.50;;;;;18.14;75.39;98611.69;5035395;28;45745;-84
2021/10/03 04:44:49;;;;;;;;;9.25;8.25;;;;;17.97;74.98;98581.34;5031078;28;45770;-84
2021/10/03 04:47:14;;;;;;;;;9.25;8.75;;;;;17.88;75.64;98572.78;5031632;28;45793;-85
2021/10/03 04:49:40;;;;;;;;;7.75;6.75;;;;;18.09;75.26;98600.88;5031190;28;47018;-84
2021/10/03 04:52:06;;;;;;;;;9.50;9.50;;;;;18.06;75.37;98596.00;5045231;28;47782;-86
2021/10/03 04:54:32;;;;;;;;;10.00;9.50;;;;;18.13;75.61;98609.25;5031664;28;45688;-86
2021/10/03 04:56:57;;;;;;;;;9.25;8.00;;;;;17.93;75.55;98570.34;5041689;28;45837;-82
2021/10/03 04:59:22;;;;;;;;;7.50;7.50;;;;;18.10;75.19;98591.91;5050865;28;45751;-85
2021/10/03 05:01:48;;;;;;;;;9.00;8.75;;;;;18.08;75.82;98591.34;5041188;28;45922;-82
2021/10/03 05:04:13;;;;;;;;;7.75;7.75;;;;;18.08;75.83;98583.38;5031289;28;46118;-86
2021/10/03 05:06:39;;;;;;;;;9.50;9.00;;;;;18.08;75.30;98590.50;5033069;28;45650;-84
2021/10/03 05:09:04;;;;;;;;;8.25;8.25;;;;;18.01;75.33;98624.97;5033419;28;46459;-85
2021/10/03 05:11:30;;;;;;;;;5.00;5.00;;;;;18.00;75.93;98607.44;5053389;28;46461;-84
2021/10/03 05:13:55;;;;;;;;;8.75;8.00;;;;;18.02;75.94;98661.88;5034508;28;45606;-86
2021/10/03 05:16:21;;;;;;;;;9.75;8.00;;;;;18.02;75.85;98656.56;5035537;28;45591;-84
2021/10/03 05:18:46;;;;;;;;;8.75;7.00;;;;;18.00;76.74;98608.25;5034278;28;45668;-83
2021/10/03 05:21:12;;;;;;;;;4.50;4.00;;;;;17.94;79.56;98666.53;5038737;28;46155;-86
2021/10/03 05:23:38;;;;;;;;;4.25;4.00;;;;;17.86;81.76;98649.03;5046185;28;45653;-82
2021/10/03 05:26:03;;;;;;;;;2.00;2.00;;;;;17.66;82.03;98681.78;5040465;28;46249;-88
2021/10/03 05:28:29;;;;;;;;;0.00;0.00;;;;;17.51;83.94;98647.53;5033711;28;47543;-80
2021/10/03 05:30:54;;;;;;;;;1.00;1.00;;;;;17.25;84.64;98676.59;5039569;28;45986;-84
2021/10/03 05:33:23;;;;;;;;;0.00;0.00;;;;;17.22;84.90;98695.53;5037104;28;45606;-92
2021/10/03 05:35:50;;;;;;;;;0.00;0.00;;;;;17.02;85.29;98695.44;5041680;28;45810;-93
2021/10/03 05:38:15;;;;;;;;;0.00;0.00;;;;;16.98;85.53;98713.53;5040196;28;45663;-92
2021/10/03 05:40:41;;;;;;;;;0.25;0.00;;;;;16.86;85.43;98690.47;5037176;28;45845;-82
2021/10/03 05:43:06;;;;;;;;;0.00;0.00;;;;;16.73;85.54;98697.31;5048958;28;45856;-92
2021/10/03 05:45:33;;;;;;;;;0.00;0.00;;;;;16.61;85.80;98716.59;5049739;28;45610;-89
2021/10/03 05:47:58;;;;;;;;;0.00;0.00;;;;;16.46;86.28;98729.88;5039375;28;45926;-87
2021/10/03 05:50:24;;;;;;;;;0.00;0.00;;;;;16.34;86.69;98734.06;5031349;28;47023;-90
2021/10/03 05:52:51;;;;;;;;;0.00;0.00;;;;;16.23;86.97;98750.44;5043775;28;45549;-79
2021/10/03 05:55:16;;;;;;;;;0.00;0.00;;;;;16.06;86.99;98735.84;5042755;28;45879;-82
2021/10/03 05:57:41;;;;;;;;;0.00;0.00;;;;;16.00;87.13;98740.06;5046977;28;47701;-81
2021/10/03 06:00:08;;;;;;;;;0.00;0.00;;;;;15.88;87.34;98739.75;5046456;28;47247;-80
2021/10/03 06:02:34;;;;;;;;;0.00;0.00;;;;;15.94;87.27;98783.09;5052302;28;45928;-81
2021/10/03 06:04:59;;;;;;;;;0.00;0.00;;;;;15.59;87.45;98739.06;5053896;28;45632;-85
2021/10/03 06:07:25;;;;;;;;;0.00;0.00;;;;;15.66;87.59;98739.91;5049529;28;46384;-87
2021/10/03 06:09:52;;;;;;;;;0.00;0.00;;;;;15.71;87.96;98764.75;5058930;28;46259;-83
2021/10/03 06:12:17;;;;;;;;;0.00;0.00;;;;;15.57;87.64;98736.59;5052900;28;46099;-78
2021/10/03 06:14:44;;;;;;;;;0.00;0.00;;;;;15.57;87.86;98747.16;5066574;28;46243;-79
2021/10/03 06:17:11;;;;;;;;;0.00;0.00;;;;;15.57;88.02;98754.25;5053313;28;46645;-80
2021/10/03 06:19:37;;;;;;;;;0.00;0.00;;;;;15.34;88.20;98734.06;5036022;28;46415;-79
2021/10/03 06:22:03;;;;;;;;;0.00;0.00;;;;;15.40;88.17;98753.63;5104377;22;45286;-80
2021/10/03 06:24:30;;;;;;;;;0.00;0.00;;;;;15.38;88.17;98731.91;5054560;28;45599;-79
2021/10/03 06:26:59;;;;;;;;;0.00;0.00;;;;;15.64;88.15;98769.16;5062889;28;45586;-80
2021/10/03 06:29:26;;;;;;;;;0.00;0.00;;;;;15.60;88.22;98767.88;5071508;28;46643;-80
2021/10/03 06:31:52;;;;;;;;;0.00;0.00;;;;;15.43;88.18;98734.78;5092873;22;45837;-78
2021/10/03 06:34:33;;;;;;;;;0.00;0.00;;;;;15.77;88.18;98785.13;5274467;22;46003;31
2021/10/03 06:36:58;;;;;;;;;0.00;0.00;;;;;15.65;88.57;98743.59;5049609;28;46045;-79
2021/10/03 06:39:25;;;;;;;;;0.00;0.00;;;;;15.80;88.54;98742.53;5053464;28;45767;-80
2021/10/03 06:41:57;;;;;;;;;0.00;0.00;;;;;15.73;88.50;98730.25;5055171;28;45551;-78
2021/10/03 06:44:23;;;;;;;;;0.00;0.00;;;;;15.89;88.35;98790.75;5047468;28;45904;-80
2021/10/03 06:46:49;;;;;;;;;0.50;0.00;;;;;15.85;88.67;98768.38;5037076;28;46813;-77
2021/10/03 06:52:00;;;;;;;;;0.00;0.00;;;;;15.89;88.86;98712.34;5082084;28;45212;-80
2021/10/03 06:54:25;;;;;;;;;0.00;0.00;;;;;15.97;88.76;98715.88;5060309;28;45189;-82
2021/10/03 06:56:50;;;;;;;;;0.00;0.00;;;;;15.89;88.56;98701.78;5058619;28;45677;-80
2021/10/03 06:59:16;;;;;;;;;0.50;0.00;;;;;15.95;88.98;98738.00;5046484;28;45419;-81
2021/10/03 07:01:48;;;;;;;;;0.00;0.00;;;;;16.02;88.97;98758.38;5058112;28;45144;-84
2021/10/03 07:04:14;;;;;;;;;1.00;0.25;;;;;16.07;88.76;98790.31;5054539;28;45095;-79
2021/10/03 07:06:41;;;;;;;;;1.00;0.00;;;;;16.08;88.83;98803.34;5047875;28;45563;-80
2021/10/03 07:09:07;;;;;;;;;0.50;0.50;;;;;16.07;88.94;98808.81;5046003;28;45608;-79
2021/10/03 07:11:35;;;;;;;;;0.00;0.00;;;;;15.98;88.95;98794.09;5051271;28;45648;-78
2021/10/03 07:14:00;;;;;;;;;1.00;1.00;;;;;16.18;89.00;98808.31;5047812;28;45614;-80
2021/10/03 07:16:27;;;;;;;;;1.00;1.00;;;;;16.25;89.04;98830.31;5046021;28;46702;-79
2021/10/03 07:18:52;;;;;;;;;0.75;0.75;;;;;16.26;89.19;98824.84;5035036;28;46189;-80
2021/10/03 07:21:19;;;;;;;;;1.00;1.00;;;;;16.26;89.41;98818.75;5037896;28;46152;-79
2021/10/03 07:23:47;;;;;;;;;2.00;1.00;;;;;16.23;89.30;98805.94;5037534;28;46127;-77
2021/10/03 07:26:13;;;;;;;;;1.00;1.00;;;;;16.29;89.16;98818.38;5040517;28;45745;-80
2021/10/03 07:28:40;;;;;;;;;2.00;1.00;;;;;16.37;89.02;98821.69;5036117;28;45695;-78
2021/10/03 07:31:05;;;;;;;;;1.00;1.00;;;;;16.38;88.91;98822.53;5038717;28;45624;-79
2021/10/03 07:33:31;;;;;;;;;2.00;1.75;;;;;16.43;88.94;98816.66;5038368;28;45401;-78
2021/10/03 07:35:57;;;;;;;;;1.75;1.75;;;;;16.43;89.20;98806.91;5043079;28;47798;-83
2021/10/03 07:38:22;;;;;;;;;1.00;1.00;;;;;16.44;89.44;98819.13;5042234;28;49128;-90
2021/10/03 07:40:48;;;;;;;;;1.00;1.00;;;;;16.42;89.19;98815.03;5045653;28;46163;-90
2021/10/03 07:43:13;;;;;;;;;3.00;2.00;;;;;16.39;89.03;98808.31;5042297;28;45942;-91
2021/10/03 07:45:39;;;;;;;;;1.00;1.00;;;;;16.39;89.74;98824.16;5055987;22;46482;-79
2021/10/03 07:48:05;;;;;;;;;1.00;1.00;;;;;16.49;89.47;98845.00;5027812;28;47099;-77
2021/10/03 07:50:30;;;;;;;;;1.50;1.00;;;;;16.41;89.46;98835.34;5045345;22;45553;-79
2021/10/03 07:52:56;;;;;;;;;1.00;1.00;;;;;16.42;89.42;98828.25;5038049;28;45736;-77
2021/10/03 07:55:28;;;;;;;;;0.50;0.50;;;;;16.48;89.56;98833.59;5031969;28;46201;-78
2021/10/03 07:57:54;;;;;;;;;1.00;1.00;;;;;16.48;89.69;98838.88;5033347;28;46410;-81
2021/10/03 08:00:19;;;;;;;;;1.00;1.00;;;;;16.35;89.42;98812.34;5031680;28;45779;-81
2021/10/03 08:02:45;;;;;;;;;1.00;1.00;;;;;16.59;89.43;98856.09;5032123;28;45706;-79
2021/10/03 08:05:12;;;;;;;;;1.75;1.75;;;;;16.61;89.77;98843.50;5031372;28;45673;-79
2021/10/03 08:07:38;;;;;;;;;1.00;1.00;;;;;16.62;89.62;98843.31;5032052;28;46016;-78
2021/10/03 08:10:05;;;;;;;;;1.00;1.00;;;;;16.44;89.97;98839.47;5030005;28;47059;-79
2021/10/03 08:12:31;;;;;;;;;1.25;1.00;;;;;16.60;89.70;98865.66;5031182;28;45746;-77
2021/10/03 08:14:57;;;;;;;;;0.00;0.00;;;;;16.65;89.73;98857.97;5027626;28;45690;-79
2021/10/03 08:17:23;;;;;;;;;1.00;1.00;;;;;16.61;89.52;98860.19;5023506;28;46250;-79
2021/10/03 08:19:48;;;;;;;;;0.00;0.00;;;;;16.63;89.42;98881.13;5014157;28;45844;-79
2021/10/03 08:22:13;;;;;;;;;1.00;1.00;;;;;16.64;89.94;98877.47;5030024;28;45849;-79
2021/10/03 08:24:39;;;;;;;;;1.00;1.00;;;;;16.66;89.95;98886.88;5027419;28;46557;-79
2021/10/03 08:27:04;;;;;;;;;1.00;1.00;;;;;16.67;89.58;98887.69;5031319;28;45698;-78
2021/10/03 08:29:30;;;;;;;;;0.00;0.00;;;;;16.69;89.59;98896.25;5027202;28;45798;-79
2021/10/03 08:31:55;;;;;;;;;1.00;1.00;;;;;16.64;89.80;98886.25;5038839;28;45888;-79
2021/10/03 08:34:21;;;;;;;;;0.75;0.75;;;;;16.64;90.06;98883.59;5047941;28;46230;-78
2021/10/03 08:36:47;;;;;;;;;0.50;0.50;;;;;16.67;89.72;98877.94;5033680;28;47050;-79
2021/10/03 08:39:12;;;;;;;;;1.00;1.00;;;;;16.70;89.82;98882.84;5049880;28;45412;-78
2021/10/03 08:41:38;;;;;;;;;0.50;0.50;;;;;16.71;89.92;98897.69;5050968;28;45550;-79
2021/10/03 08:44:04;;;;;;;;;0.00;0.00;;;;;16.72;89.88;98893.25;5044722;28;46446;-79
2021/10/03 08:46:29;;;;;;;;;2.00;2.00;;;;;16.71;89.77;98905.63;5044374;28;46155;-80
2021/10/03 08:48:56;;;;;;;;;1.00;1.00;;;;;16.66;90.03;98899.28;5045374;28;45597;-79
2021/10/03 08:51:23;;;;;;;;;2.00;2.00;;;;;16.77;90.24;98927.88;5047299;28;45747;-80
2021/10/03 08:53:49;;;;;;;;;2.00;2.00;;;;;16.65;90.43;98921.44;5044166;28;45857;-79
2021/10/03 08:56:16;;;;;;;;;2.50;2.50;;;;;16.72;90.20;98925.78;5004337;28;46634;-79
2021/10/03 08:58:41;;;;;;;;;4.25;4.25;;;;;16.72;89.93;98922.31;5020047;28;46194;-76
2021/10/03 09:01:10;;;;;;;;;6.00;5.50;;;;;16.76;89.91;98929.69;5042832;28;45709;-79
2021/10/03 09:03:36;;;;;;;;;6.00;4.75;;;;;16.84;90.33;98951.72;5031859;28;45795;-78
2021/10/03 09:06:03;;;;;;;;;3.00;2.00;;;;;16.81;89.92;98933.59;5032247;28;46560;-80
2021/10/03 09:08:36;;;;;;;;;3.00;2.50;;;;;16.83;90.28;98950.09;5033110;28;45938;-78
2021/10/03 09:11:10;;;;;;;;;3.50;2.00;;;;;16.83;89.98;98952.75;5032817;28;45762;-79
2021/10/03 09:13:35;;;;;;;;;2.00;2.00;;;;;16.86;90.18;98953.16;5030167;28;45843;-78
2021/10/03 09:16:32;;;;;;;;;2.25;1.25;;;;;16.85;90.17;98940.94;5025607;28;45889;-80
2021/10/03 09:19:01;;;;;;;;;2.25;1.75;;;;;16.86;90.38;98958.47;5022954;28;46059;-78
2021/10/03 09:21:29;;;;;;;;;1.75;1.75;;;;;16.93;90.23;98969.09;5027013;28;45851;-80
2021/10/03 09:24:05;;;;;;;;;1.75;1.00;;;;;16.70;90.36;98930.44;5002928;28;48070;-79
2021/10/03 09:26:32;;;;;;;;;1.50;1.50;;;;;16.95;89.90;98967.09;5025286;28;48446;-78
2021/10/03 09:28:58;;;;;;;;;1.50;1.00;;;;;16.96;90.46;98974.00;5018514;28;45878;-78
2021/10/03 09:31:24;;;;;;;;;0.00;0.00;;;;;17.03;90.51;98985.47;5022942;28;45924;-78
2021/10/03 09:33:53;;;;;;;;;1.00;1.00;;;;;17.05;90.50;98986.94;5025987;28;45737;-77
2021/10/03 09:36:30;;;;;;;;;1.00;1.00;;;;;16.96;90.46;98974.00;5016448;28;46850;-78
2021/10/03 09:38:59;;;;;;;;;1.00;1.00;;;;;17.10;90.78;99029.53;5025756;28;45803;-77
2021/10/03 09:41:33;;;;;;;;;0.00;0.00;;;;;17.11;90.77;99130.91;5030704;28;46543;-79
2021/10/03 09:44:07;;;;;;;;;0.00;0.00;;;;;16.75;91.53;99131.69;5024165;28;46313;-79
2021/10/03 09:46:41;;;;;;;;;0.00;0.00;;;;;16.32;92.28;99146.56;5022672;28;46298;-79
2021/10/03 09:49:28;;;;;;;;;0.00;0.00;;;;;15.98;92.78;99162.06;5034005;28;46094;-80
2021/10/03 09:51:54;;;;;;;;;0.00;0.00;;;;;15.64;93.35;99191.59;5033372;28;45892;-81
2021/10/03 09:54:22;;;;;;;;;0.00;0.00;;;;;15.46;93.63;99214.78;5015679;28;45718;-76
2021/10/03 09:56:50;;;;;;;;;0.00;0.00;;;;;15.23;93.76;99227.09;5032576;28;47734;-80
2021/10/03 09:59:16;;;;;;;;;0.00;0.00;;;;;14.98;94.07;99229.03;5033597;28;45731;-80
2021/10/03 10:01:46;;;;;;;;;0.00;0.00;;;;;14.76;94.21;99225.31;5031920;28;45962;-78
2021/10/03 10:04:18;;;;;;;;;0.00;0.00;;;;;14.48;93.97;99242.50;5030604;28;47340;-81
2021/10/03 10:06:45;;;;;;;;;0.00;0.00;;;;;14.41;94.00;99283.72;5029359;28;46106;-78
2021/10/03 10:09:12;;;;;;;;;0.00;0.00;;;;;14.27;94.11;99285.97;5032302;28;45776;-82
2021/10/03 10:11:55;;;;;;;;;0.00;0.00;;;;;14.15;94.32;99302.28;5033155;28;45583;-82
2021/10/03 10:14:29;;;;;;;;;0.00;0.00;;;;;14.01;94.37;99313.47;5018278;28;45699;-81
2021/10/03 10:16:58;;;;;;;;;0.00;0.00;;;;;13.90;94.56;99369.06;5027379;28;46946;-79
2021/10/03 10:19:34;;;;;;;;;0.00;0.00;;;;;13.71;94.21;99336.75;5028760;28;45763;-80
2021/10/03 10:22:11;;;;;;;;;0.00;0.00;;;;;13.72;94.61;99334.94;5028309;28;46920;-79
2021/10/03 10:24:43;;;;;;;;;0.00;0.00;;;;;13.67;94.47;99327.53;5029255;28;47336;-80
2021/10/03 10:27:09;;;;;;;;;0.00;0.00;;;;;13.66;94.35;99352.19;5028346;28;46149;-79
2021/10/03 10:29:50;;;;;;;;;0.00;0.00;;;;;13.47;94.36;99359.53;5028897;28;45760;-80
2021/10/03 10:32:16;;;;;;;;;0.00;0.00;;;;;13.63;94.85;99409.59;5028695;28;45824;-80
2021/10/03 10:35:09;;;;;;;;;0.00;0.00;;;;;13.59;94.90;99418.81;5032745;28;45722;-80
2021/10/03 10:37:50;;;;;;;;;0.75;0.00;;;;;13.56;94.96;99429.63;5031245;28;46750;-76
2021/10/03 10:40:21;;;;;;;;;0.00;0.00;;;;;13.50;94.63;99415.28;5032427;28;46687;-80
2021/10/03 10:43:04;;;;;;;;;0.00;0.00;;;;;13.41;94.42;99410.97;5032960;28;45794;-80
2021/10/03 10:48:10;;;;;;;;;0.00;0.00;;;;;13.46;94.72;99474.47;5031251;28;46520;-78
2021/10/03 10:50:36;;;;;;;;;0.00;0.00;;;;;13.46;94.62;99463.94;5028145;28;45621;-79
2021/10/03 10:53:35;;;;;;;;;0.00;0.00;;;;;13.40;94.46;99496.97;5032741;28;45931;-80
2021/10/03 10:56:03;;;;;;;;;0.75;0.75;;;;;13.42;94.77;99500.28;5031255;28;45705;-80
2021/10/03 10:58:30;;;;;;;;;0.00;0.00;;;;;13.43;94.67;99506.38;5033025;28;45850;-79
2021/10/03 11:01:03;;;;;;;;;0.00;0.00;;;;;13.38;94.80;99488.44;5035565;28;45707;-79
2021/10/03 11:03:41;;;;;;;;;0.00;0.00;;;;;13.50;94.46;99496.88;5037589;28;46286;-78
2021/10/03 11:06:21;;;;;;;;;0.25;0.25;;;;;13.55;94.61;99478.81;5019707;28;47857;-78
2021/10/03 11:09:10;;;;;;;;;0.00;0.00;;;;;13.61;94.79;99483.44;5034292;28;46853;-78
2021/10/03 11:11:56;;;;;;;;;0.00;0.00;;;;;13.64;94.96;99477.06;5029683;28;46078;-77
2021/10/03 11:14:27;;;;;;;;;3.00;3.00;;;;;13.69;95.05;99504.56;5031218;28;45763;-80
2021/10/03 11:16:58;;;;;;;;;0.00;0.00;;;;;13.72;94.76;99519.19;5029889;28;45939;-83
2021/10/03 11:19:54;;;;;;;;;0.75;0.75;;;;;13.72;94.38;99514.75;5028823;28;46168;-80
2021/10/03 11:22:24;;;;;;;;;0.00;0.00;;;;;13.68;94.61;99520.50;5029968;28;45784;-79
2021/10/03 11:24:54;;;;;;;;;0.00;0.00;;;;;13.81;94.64;99552.50;5026952;28;45765;-82
2021/10/03 11:27:29;;;;;;;;;1.00;1.00;;;;;13.89;95.07;99563.06;5030066;28;46668;-79
2021/10/03 11:29:57;;;;;;;;;1.00;1.00;;;;;13.94;94.91;99594.19;5029504;28;46982;-78
2021/10/03 11:32:27;;;;;;;;;1.00;1.00;;;;;13.99;94.68;99581.41;5027159;28;45804;-80
2021/10/03 11:35:00;;;;;;;;;1.00;1.00;;;;;14.02;94.53;99584.56;5031103;28;46522;-79
2021/10/03 11:37:30;;;;;;;;;5.00;4.00;;;;;14.10;94.56;99602.19;5030290;28;46604;-82
2021/10/03 11:39:56;;;;;;;;;0.75;0.75;;;;;14.13;94.53;99597.47;5024427;28;46948;-79
2021/10/03 11:42:34;;;;;;;;;0.50;0.50;;;;;14.21;94.52;99604.56;5029380;28;45856;-82